Time;durP1;ratioP1;P1;durP2;ratioP2;P2;SDS_P1;SDS_P2;PMS_P1;PMS_P2;Temp;Humidity;BMP_temperature;BMP_pressure;BME280_temperature;BME280_humidity;BME280_pressure;Samples;Min_cycle;Max_cycle;Signal;HPM_P1;HPM_P2
2021/12/27 00:01:28;;;;;;;9.53;9.23;;;2.10;99.90;;;;;;4980329;28;20689;-76
2021/12/27 00:03:56;;;;;;;9.77;9.47;;;2.10;99.90;;;;;;4992723;28;21091;-77
2021/12/27 00:06:25;;;;;;;9.60;9.30;;;2.10;99.90;;;;;;5000589;28;20295;-77
2021/12/27 00:08:53;;;;;;;9.90;9.60;;;2.00;99.90;;;;;;5000119;28;20292;-77
2021/12/27 00:11:20;;;;;;;10.10;9.80;;;2.00;99.90;;;;;;5000010;28;20229;-77
2021/12/27 00:13:48;;;;;;;9.70;9.40;;;2.00;99.90;;;;;;4999743;28;20241;-77
2021/12/27 00:16:16;;;;;;;9.73;9.43;;;2.10;99.90;;;;;;5000078;28;20243;-77
2021/12/27 00:18:49;;;;;;;9.50;9.20;;;2.10;99.90;;;;;;4999363;28;20237;-77
2021/12/27 00:21:17;;;;;;;9.57;9.27;;;2.10;99.90;;;;;;5000425;28;20257;-77
2021/12/27 00:23:45;;;;;;;9.50;9.20;;;2.10;99.90;;;;;;5000141;28;20241;-77
2021/12/27 00:26:12;;;;;;;9.70;9.40;;;2.10;99.90;;;;;;5000208;28;20228;-76
2021/12/27 00:28:40;;;;;;;9.80;9.50;;;2.00;99.90;;;;;;4981190;28;20528;-76
2021/12/27 00:31:08;;;;;;;9.43;9.13;;;2.10;99.90;;;;;;4979826;28;20292;-77
2021/12/27 00:33:35;;;;;;;9.70;9.40;;;2.00;99.90;;;;;;4979716;28;20290;-76
2021/12/27 00:36:05;;;;;;;9.50;9.20;;;2.10;99.90;;;;;;4980269;28;20346;-76
2021/12/27 00:38:33;;;;;;;9.60;9.30;;;2.10;99.90;;;;;;4980414;28;20241;-77
2021/12/27 00:41:00;;;;;;;9.63;9.33;;;2.10;99.90;;;;;;4983750;28;20296;-76
2021/12/27 00:43:28;;;;;;;9.60;9.30;;;2.10;99.90;;;;;;4991479;28;20229;-76
2021/12/27 00:45:56;;;;;;;9.40;9.10;;;2.10;99.90;;;;;;4991851;28;20233;-75
2021/12/27 00:48:25;;;;;;;9.63;9.33;;;2.10;99.90;;;;;;4992151;28;20229;-76
2021/12/27 00:50:52;;;;;;;9.63;9.33;;;2.10;99.90;;;;;;4992751;28;20232;-77
2021/12/27 00:53:22;;;;;;;9.70;9.40;;;2.00;99.90;;;;;;4983408;28;20261;-77
2021/12/27 00:55:49;;;;;;;9.80;9.50;;;2.00;99.90;;;;;;4979323;28;20237;-76
2021/12/27 00:58:17;;;;;;;9.83;9.53;;;2.00;99.90;;;;;;4978813;28;20237;-77
2021/12/27 01:00:45;;;;;;;9.50;9.20;;;2.00;99.90;;;;;;4979569;28;20290;-77
2021/12/27 01:03:13;;;;;;;9.40;9.10;;;2.00;99.90;;;;;;4979211;28;20261;-77
2021/12/27 01:05:41;;;;;;;9.60;9.30;;;2.00;99.90;;;;;;4979740;28;20264;-77
2021/12/27 01:08:09;;;;;;;9.47;9.17;;;2.00;99.90;;;;;;4981180;28;20257;-77
2021/12/27 01:13:26;;;;;;;9.47;9.17;;;2.00;99.90;;;;;;4977955;28;20380;-77
2021/12/27 01:16:10;;;;;;;9.60;9.30;;;2.10;99.90;;;;;;4979938;28;20221;-77
2021/12/27 01:18:45;;;;;;;9.70;9.40;;;2.00;99.90;;;;;;4979320;28;20265;-77
2021/12/27 01:21:17;;;;;;;9.50;9.20;;;2.10;99.90;;;;;;4978837;28;20704;-77
2021/12/27 01:23:48;;;;;;;9.43;9.13;;;2.10;99.90;;;;;;4979033;28;20280;-77
2021/12/27 01:26:21;;;;;;;9.40;9.10;;;2.00;99.90;;;;;;4979077;28;20656;-77
2021/12/27 01:28:49;;;;;;;9.50;9.20;;;2.10;99.90;;;;;;4979044;28;20314;-77
2021/12/27 01:31:17;;;;;;;9.47;9.17;;;2.10;99.90;;;;;;4979048;28;20242;-77
2021/12/27 01:33:47;;;;;;;9.40;9.10;;;2.10;99.90;;;;;;4978710;28;20237;-77
2021/12/27 01:36:16;;;;;;;9.40;9.10;;;2.10;99.90;;;;;;4979589;28;20296;-77
2021/12/27 01:38:47;;;;;;;9.40;9.10;;;2.00;99.90;;;;;;4979200;28;20292;-77
2021/12/27 01:41:18;;;;;;;9.50;9.20;;;2.00;99.90;;;;;;4979312;28;20273;-77
2021/12/27 01:43:46;;;;;;;9.43;9.13;;;2.10;99.90;;;;;;4979029;28;20238;-77
2021/12/27 01:46:17;;;;;;;9.40;9.10;;;2.10;99.90;;;;;;4978970;28;20309;-77
2021/12/27 01:48:54;;;;;;;9.40;9.10;;;2.00;99.90;;;;;;4978830;28;20241;-77
2021/12/27 01:51:25;;;;;;;9.40;9.10;;;2.00;99.90;;;;;;4979380;28;20271;-77
2021/12/27 01:53:53;;;;;;;9.30;9.00;;;2.00;99.90;;;;;;4978668;28;20297;-77
2021/12/27 01:56:27;;;;;;;9.40;9.10;;;2.00;99.90;;;;;;4979191;28;20242;-77
2021/12/27 01:58:58;;;;;;;9.37;9.07;;;2.00;99.90;;;;;;4978490;28;20283;-77
2021/12/27 02:01:29;;;;;;;9.23;8.93;;;2.00;99.90;;;;;;4982440;28;20414;-77
2021/12/27 02:03:57;;;;;;;9.60;9.30;;;2.00;99.90;;;;;;4982303;28;20224;-77
2021/12/27 02:06:27;;;;;;;9.60;9.30;;;2.00;99.90;;;;;;4982202;28;20316;-77
2021/12/27 02:08:56;;;;;;;9.40;9.10;;;2.00;99.90;;;;;;4981673;28;20241;-77
2021/12/27 02:11:33;;;;;;;9.50;9.20;;;2.00;99.90;;;;;;4981789;28;20241;-77
2021/12/27 02:14:04;;;;;;;9.60;9.30;;;2.00;99.90;;;;;;4981631;28;20237;-77
2021/12/27 02:16:33;;;;;;;9.13;8.83;;;2.00;99.90;;;;;;4982016;28;20295;-77
2021/12/27 02:19:02;;;;;;;9.60;9.30;;;2.00;99.90;;;;;;4981976;28;20279;-77
2021/12/27 02:21:35;;;;;;;9.47;9.17;;;2.00;99.90;;;;;;4981719;28;20233;-77
2021/12/27 02:24:04;;;;;;;9.50;9.20;;;2.00;99.90;;;;;;4981387;28;20288;-76
2021/12/27 02:26:31;;;;;;;9.50;9.20;;;2.00;99.90;;;;;;4981276;28;20237;-76
2021/12/27 02:29:01;;;;;;;9.60;9.30;;;2.00;99.90;;;;;;4981587;28;20237;-77
2021/12/27 02:31:37;;;;;;;9.60;9.30;;;2.00;99.90;;;;;;4981020;28;20233;-77
2021/12/27 02:34:08;;;;;;;9.40;9.10;;;2.00;99.90;;;;;;4981021;28;20296;-77
2021/12/27 02:36:41;;;;;;;9.70;9.40;;;2.00;99.90;;;;;;4981271;28;20653;-77
2021/12/27 02:39:08;;;;;;;9.53;9.23;;;2.10;99.90;;;;;;4981127;28;20737;-77
2021/12/27 02:41:37;;;;;;;9.40;9.10;;;2.10;99.90;;;;;;4980673;28;20226;-77
2021/12/27 02:44:06;;;;;;;9.50;9.20;;;2.10;99.90;;;;;;4980774;28;20719;-77
2021/12/27 02:46:36;;;;;;;9.50;9.20;;;2.10;99.90;;;;;;4981232;28;20324;-76
2021/12/27 02:49:05;;;;;;;9.37;9.07;;;2.10;99.90;;;;;;4981189;28;20265;-77
2021/12/27 02:51:34;;;;;;;9.47;9.17;;;2.10;99.90;;;;;;4980948;28;20229;-77
2021/12/27 02:54:06;;;;;;;9.60;9.30;;;2.10;99.90;;;;;;4980963;28;20238;-77
2021/12/27 02:56:35;;;;;;;9.70;9.40;;;2.10;99.90;;;;;;4981093;28;21052;-76
2021/12/27 02:59:03;;;;;;;9.60;9.30;;;2.10;99.90;;;;;;4980661;28;20289;-77
2021/12/27 03:01:32;;;;;;;9.67;9.37;;;2.10;99.90;;;;;;4980554;28;20237;-76
2021/12/27 03:04:01;;;;;;;9.70;9.40;;;2.10;99.90;;;;;;4980707;28;20320;-77
2021/12/27 03:06:29;;;;;;;9.60;9.30;;;2.10;99.90;;;;;;4981529;28;20283;-77
2021/12/27 03:08:56;;;;;;;9.57;9.27;;;2.20;99.90;;;;;;4980614;28;20300;-76
2021/12/27 03:11:25;;;;;;;9.50;9.20;;;2.20;99.90;;;;;;4979997;28;20254;-76
2021/12/27 03:13:55;;;;;;;9.50;9.20;;;2.20;99.90;;;;;;4981076;28;20257;-76
2021/12/27 03:16:26;;;;;;;9.50;9.20;;;2.20;99.90;;;;;;4981607;28;20233;-76
2021/12/27 03:18:55;;;;;;;9.50;9.20;;;2.20;99.90;;;;;;4983402;28;20297;-76
2021/12/27 03:21:24;;;;;;;9.70;9.40;;;2.20;99.90;;;;;;4990743;28;20281;-76
2021/12/27 03:23:52;;;;;;;9.40;9.10;;;2.10;99.90;;;;;;4993875;28;20226;-76
2021/12/27 03:26:20;;;;;;;9.53;9.23;;;2.20;99.90;;;;;;4997653;28;20338;-78
2021/12/27 03:28:49;;;;;;;9.37;9.07;;;2.20;99.90;;;;;;4998236;28;20245;-76
2021/12/27 03:31:19;;;;;;;9.60;9.30;;;2.20;99.90;;;;;;4998694;28;20222;-77
2021/12/27 03:33:47;;;;;;;9.40;9.10;;;2.20;99.90;;;;;;4998158;28;20228;-76
2021/12/27 03:36:14;;;;;;;9.60;9.30;;;2.20;99.90;;;;;;4999512;28;20348;-76
2021/12/27 03:38:44;;;;;;;9.67;9.37;;;2.20;99.90;;;;;;4999269;28;20238;-76
2021/12/27 03:41:19;;;;;;;9.40;9.10;;;2.20;99.90;;;;;;4999387;28;20290;-75
2021/12/27 03:43:48;;;;;;;9.60;9.30;;;2.20;99.90;;;;;;4994661;28;20221;-76
2021/12/27 03:46:16;;;;;;;9.60;9.30;;;2.20;99.90;;;;;;4989123;28;20288;-75
2021/12/27 03:48:43;;;;;;;9.50;9.20;;;2.20;99.90;;;;;;4991207;28;20365;-76
2021/12/27 03:51:11;;;;;;;9.60;9.30;;;2.20;99.90;;;;;;4989288;28;20269;-75
2021/12/27 03:53:39;;;;;;;9.70;9.40;;;2.30;99.90;;;;;;4985268;28;20217;-76
2021/12/27 03:56:08;;;;;;;9.70;9.40;;;2.30;99.90;;;;;;4985546;28;20237;-75
2021/12/27 03:58:47;;;;;;;9.50;9.20;;;2.30;99.90;;;;;;4983902;28;20242;-76
2021/12/27 04:01:21;;;;;;;9.60;9.30;;;2.30;99.90;;;;;;4981573;28;20305;-75
2021/12/27 04:03:52;;;;;;;9.70;9.40;;;2.30;99.90;;;;;;4982203;28;20381;-75
2021/12/27 04:06:28;;;;;;;9.60;9.30;;;2.30;99.90;;;;;;4981416;28;20241;-76
2021/12/27 04:09:03;;;;;;;9.90;9.60;;;2.30;99.90;;;;;;4981443;28;20237;-76
2021/12/27 04:11:33;;;;;;;9.73;9.43;;;2.30;99.90;;;;;;4982873;28;20233;-76
2021/12/27 04:14:02;;;;;;;9.70;9.40;;;2.20;99.90;;;;;;4985251;28;20229;-77
2021/12/27 04:16:34;;;;;;;9.80;9.50;;;2.20;99.90;;;;;;4986079;28;20261;-79
2021/12/27 04:19:04;;;;;;;9.63;9.33;;;2.20;99.90;;;;;;4982908;28;20241;-77
2021/12/27 04:21:33;;;;;;;9.70;9.40;;;2.20;99.90;;;;;;4981660;28;20233;-75
2021/12/27 04:24:04;;;;;;;9.60;9.30;;;2.20;99.90;;;;;;4980113;28;20225;-76
2021/12/27 04:26:33;;;;;;;9.87;9.57;;;2.20;99.90;;;;;;4980389;28;20225;-77
2021/12/27 04:29:02;;;;;;;9.77;9.47;;;2.20;99.90;;;;;;4983479;28;20229;-77
2021/12/27 04:31:33;;;;;;;9.67;9.37;;;2.20;99.90;;;;;;4984047;28;20291;-77
2021/12/27 04:34:01;;;;;;;9.70;9.40;;;2.20;99.90;;;;;;4981488;28;20292;-77
2021/12/27 04:36:30;;;;;;;9.60;9.30;;;2.20;99.90;;;;;;4980090;28;20229;-77
2021/12/27 04:39:00;;;;;;;9.40;9.10;;;2.20;99.90;;;;;;4979750;28;20296;-77
2021/12/27 04:41:29;;;;;;;9.40;9.10;;;2.20;99.90;;;;;;4980087;28;20289;-77
2021/12/27 04:43:57;;;;;;;9.17;8.87;;;2.20;99.90;;;;;;4979215;28;20233;-77
2021/12/27 04:46:27;;;;;;;9.40;9.10;;;2.20;99.90;;;;;;4979871;28;20237;-76
2021/12/27 04:48:59;;;;;;;9.33;9.03;;;2.20;99.90;;;;;;4979841;28;20238;-76
2021/12/27 04:51:27;;;;;;;9.57;9.27;;;2.20;99.90;;;;;;4979943;28;20265;-76
2021/12/27 04:53:56;;;;;;;9.60;9.30;;;2.20;99.90;;;;;;4979686;28;20221;-76
2021/12/27 04:56:24;;;;;;;9.50;9.20;;;2.30;99.90;;;;;;4979510;28;20273;-77
2021/12/27 04:58:52;;;;;;;9.50;9.20;;;2.30;99.90;;;;;;4978794;28;20246;-76
2021/12/27 05:01:22;;;;;;;9.60;9.30;;;2.30;99.90;;;;;;4979293;28;20831;-76
2021/12/27 05:03:52;;;;;;;9.60;9.30;;;2.30;99.90;;;;;;4978842;28;20238;-76
2021/12/27 05:06:21;;;;;;;9.50;9.20;;;2.30;99.90;;;;;;4979250;28;20752;-76
2021/12/27 05:08:50;;;;;;;9.60;9.30;;;2.30;99.90;;;;;;4979122;28;20285;-76
2021/12/27 05:11:18;;;;;;;9.60;9.30;;;2.30;99.90;;;;;;4979231;28;20236;-76
2021/12/27 05:13:45;;;;;;;9.40;9.10;;;2.30;99.90;;;;;;4979108;28;20305;-76
2021/12/27 05:16:13;;;;;;;9.80;9.50;;;2.30;99.90;;;;;;4979189;28;20241;-76
2021/12/27 05:18:42;;;;;;;9.70;9.40;;;2.40;99.90;;;;;;4979031;28;20261;-77
2021/12/27 05:21:10;;;;;;;9.60;9.30;;;2.30;99.90;;;;;;4979257;28;20237;-77
2021/12/27 05:23:42;;;;;;;9.70;9.40;;;2.40;99.90;;;;;;4978816;28;20221;-77
2021/12/27 05:26:11;;;;;;;9.60;9.30;;;2.30;99.90;;;;;;4979428;28;20325;-77
2021/12/27 05:28:41;;;;;;;9.70;9.40;;;2.40;99.90;;;;;;4979279;28;20253;-77
2021/12/27 05:31:11;;;;;;;9.40;9.10;;;2.30;99.90;;;;;;4978902;28;20233;-77
2021/12/27 05:33:40;;;;;;;9.50;9.20;;;2.30;99.90;;;;;;4978507;28;20226;-76
2021/12/27 05:36:12;;;;;;;9.70;9.40;;;2.30;99.90;;;;;;4978608;28;20245;-77
2021/12/27 05:38:42;;;;;;;9.40;9.10;;;2.40;99.90;;;;;;4978926;28;20269;-77
2021/12/27 05:41:10;;;;;;;9.60;9.30;;;2.40;99.90;;;;;;4980690;28;20221;-76
2021/12/27 05:43:38;;;;;;;9.80;9.50;;;2.40;99.90;;;;;;4979795;28;20214;-76
2021/12/27 05:46:07;;;;;;;9.53;9.23;;;2.40;99.90;;;;;;4980602;28;20237;-76
2021/12/27 05:48:37;;;;;;;9.33;9.03;;;2.40;99.90;;;;;;4979155;28;20261;-77
2021/12/27 05:51:05;;;;;;;9.43;9.13;;;2.40;99.90;;;;;;4978911;28;20237;-76
2021/12/27 05:53:33;;;;;;;9.53;9.23;;;2.40;99.90;;;;;;4978380;28;20229;-76
2021/12/27 05:56:03;;;;;;;9.60;9.30;;;2.40;99.90;;;;;;4978681;28;20240;-76
2021/12/27 05:58:31;;;;;;;9.47;9.17;;;2.40;99.90;;;;;;4977996;28;20273;-76
2021/12/27 06:00:58;;;;;;;9.70;9.40;;;2.40;99.90;;;;;;5022347;22;20263;-82
2021/12/27 06:03:26;;;;;;;9.50;9.20;;;2.40;99.90;;;;;;5004017;28;20225;-82
2021/12/27 06:05:54;;;;;;;9.60;9.30;;;2.50;99.90;;;;;;5002521;28;20228;-82
2021/12/27 06:08:22;;;;;;;9.50;9.20;;;2.40;99.90;;;;;;5002676;28;20229;-83
2021/12/27 06:10:49;;;;;;;9.47;9.17;;;2.40;99.90;;;;;;4986411;28;20343;-83
2021/12/27 06:13:18;;;;;;;9.40;9.10;;;2.50;99.90;;;;;;5001895;28;20236;-82
2021/12/27 06:15:46;;;;;;;9.40;9.10;;;2.40;99.90;;;;;;5002738;28;20241;-82
2021/12/27 06:18:14;;;;;;;9.60;9.30;;;2.50;99.90;;;;;;5002886;28;20240;-83
2021/12/27 06:20:42;;;;;;;9.40;9.10;;;2.40;99.90;;;;;;5002945;28;20237;-82
2021/12/27 06:23:10;;;;;;;9.67;9.37;;;2.40;99.90;;;;;;5003404;28;20224;-82
2021/12/27 06:25:38;;;;;;;9.60;9.30;;;2.40;99.90;;;;;;5003923;28;20288;-82
2021/12/27 06:28:06;;;;;;;9.53;9.23;;;2.40;99.90;;;;;;5004077;28;20233;-82
2021/12/27 06:30:35;;;;;;;9.50;9.20;;;2.50;99.90;;;;;;5003693;28;20237;-83
2021/12/27 06:33:03;;;;;;;9.40;9.10;;;2.50;99.90;;;;;;5003918;28;20225;-82
2021/12/27 06:35:30;;;;;;;9.47;9.17;;;2.50;99.90;;;;;;4996028;28;20237;-83
2021/12/27 06:37:58;;;;;;;9.60;9.30;;;2.50;99.90;;;;;;5003822;28;20252;-82
2021/12/27 06:40:26;;;;;;;9.50;9.20;;;2.50;99.90;;;;;;5002804;28;20237;-82
2021/12/27 06:42:54;;;;;;;9.40;9.10;;;2.50;99.90;;;;;;5003331;28;20229;-83
2021/12/27 06:45:22;;;;;;;9.30;9.00;;;2.50;99.90;;;;;;5004800;28;20237;-83
2021/12/27 06:47:52;;;;;;;9.30;9.00;;;2.50;99.90;;;;;;5007663;28;20236;-82
2021/12/27 06:50:21;;;;;;;9.40;9.10;;;2.40;99.90;;;;;;5014266;28;20241;-82
2021/12/27 06:52:49;;;;;;;9.63;9.33;;;2.40;99.90;;;;;;5019632;28;20280;-82
2021/12/27 06:55:17;;;;;;;9.30;9.00;;;2.40;99.90;;;;;;5020420;28;20237;-82
2021/12/27 06:57:45;;;;;;;9.50;9.20;;;2.40;99.90;;;;;;5020592;28;20252;-82
2021/12/27 07:00:15;;;;;;;9.50;9.20;;;2.40;99.90;;;;;;5013166;28;20236;-82
2021/12/27 07:02:46;;;;;;;9.80;9.50;;;2.40;99.90;;;;;;5008819;28;20272;-82
2021/12/27 07:05:17;;;;;;;9.70;9.40;;;2.40;99.90;;;;;;5008350;28;20237;-83
2021/12/27 07:07:46;;;;;;;9.80;9.50;;;2.50;99.90;;;;;;5008664;28;20268;-82
2021/12/27 07:10:16;;;;;;;9.63;9.33;;;2.50;99.90;;;;;;5007182;28;20243;-82
2021/12/27 07:12:44;;;;;;;9.73;9.43;;;2.50;99.90;;;;;;5006772;28;20245;-82
2021/12/27 07:15:12;;;;;;;9.90;9.60;;;2.50;99.90;;;;;;5005993;28;20236;-83
2021/12/27 07:17:40;;;;;;;10.20;9.90;;;2.50;99.90;;;;;;5006913;28;20266;-82
2021/12/27 07:20:09;;;;;;;10.00;9.70;;;2.50;99.90;;;;;;5005883;28;20299;-82
2021/12/27 07:22:38;;;;;;;9.87;9.57;;;2.50;99.90;;;;;;5006315;28;20240;-83
2021/12/27 07:25:07;;;;;;;10.10;9.80;;;2.50;99.90;;;;;;5005389;28;20237;-84
2021/12/27 07:27:36;;;;;;;10.10;9.80;;;2.60;99.90;;;;;;5007030;28;20264;-82
2021/12/27 07:30:08;;;;;;;9.90;9.60;;;2.60;99.90;;;;;;5007570;28;20217;-82
2021/12/27 07:32:36;;;;;;;9.83;9.53;;;2.50;99.90;;;;;;5008612;28;20335;-82
2021/12/27 07:35:05;;;;;;;9.80;9.50;;;2.60;99.90;;;;;;5006372;28;20264;-82
2021/12/27 07:37:32;;;;;;;10.03;9.73;;;2.60;99.90;;;;;;5006587;28;20233;-82
2021/12/27 07:40:02;;;;;;;10.10;9.80;;;2.70;99.90;;;;;;5006938;28;20243;-82
2021/12/27 07:42:29;;;;;;;9.93;9.63;;;2.70;99.90;;;;;;5006572;28;20240;-83
2021/12/27 07:44:57;;;;;;;9.73;9.43;;;2.70;99.90;;;;;;5006439;28;20264;-82
2021/12/27 07:47:25;;;;;;;10.10;9.80;;;2.70;99.90;;;;;;5007023;28;20249;-82
2021/12/27 07:49:52;;;;;;;10.10;9.80;;;2.80;99.90;;;;;;5005859;28;20292;-83
2021/12/27 07:52:20;;;;;;;10.10;9.80;;;2.80;99.90;;;;;;5005578;28;20244;-83
2021/12/27 07:54:48;;;;;;;9.63;9.33;;;2.80;99.90;;;;;;5006111;28;20229;-82
2021/12/27 07:57:18;;;;;;;9.70;9.40;;;2.80;99.90;;;;;;5005898;28;20233;-82
2021/12/27 07:59:47;;;;;;;10.03;9.73;;;2.70;99.90;;;;;;5005509;28;20240;-84
2021/12/27 08:02:15;;;;;;;9.80;9.50;;;2.70;99.90;;;;;;5001279;28;20237;-85
2021/12/27 08:04:44;;;;;;;9.47;9.17;;;2.80;99.90;;;;;;5000481;28;20287;-86
2021/12/27 08:07:12;;;;;;;9.67;9.37;;;2.90;99.90;;;;;;5001760;28;20233;-85
2021/12/27 08:09:40;;;;;;;9.97;9.67;;;2.80;99.90;;;;;;5002449;28;20256;-85
2021/12/27 08:12:12;;;;;;;9.57;9.27;;;2.80;99.90;;;;;;5001183;28;20267;-85
2021/12/27 08:14:42;;;;;;;9.77;9.47;;;2.80;99.90;;;;;;5000402;28;20240;-85
2021/12/27 08:17:10;;;;;;;9.37;9.07;;;2.90;99.90;;;;;;4986657;28;20242;-85
2021/12/27 08:19:38;;;;;;;9.60;9.30;;;2.90;99.90;;;;;;4981163;28;20226;-86
2021/12/27 08:22:06;;;;;;;9.80;9.50;;;2.90;99.90;;;;;;4982283;28;20229;-84
2021/12/27 08:24:33;;;;;;;9.50;9.20;;;2.90;99.90;;;;;;4981461;28;20284;-85
2021/12/27 08:27:03;;;;;;;9.73;9.43;;;2.90;99.90;;;;;;4981962;28;20234;-84
2021/12/27 08:29:31;;;;;;;9.60;9.30;;;2.90;99.90;;;;;;4983008;28;20242;-85
2021/12/27 08:32:00;;;;;;;9.50;9.20;;;3.00;99.90;;;;;;4982194;28;20304;-84
2021/12/27 08:34:29;;;;;;;9.60;9.30;;;3.00;99.90;;;;;;4983646;28;20230;-85
2021/12/27 08:36:57;;;;;;;9.70;9.40;;;3.00;99.90;;;;;;4987739;28;20240;-83
2021/12/27 08:39:25;;;;;;;9.53;9.23;;;3.10;99.90;;;;;;4993474;28;20221;-83
2021/12/27 08:41:52;;;;;;;9.67;9.37;;;3.10;99.90;;;;;;4983439;28;20241;-84
2021/12/27 08:44:21;;;;;;;9.53;9.23;;;3.10;99.90;;;;;;4999821;28;20340;-84
2021/12/27 08:46:49;;;;;;;9.50;9.20;;;3.10;99.90;;;;;;5003779;28;20233;-84
2021/12/27 08:49:18;;;;;;;9.80;9.50;;;3.10;99.90;;;;;;5001995;28;20252;-84
2021/12/27 08:51:46;;;;;;;9.60;9.30;;;3.10;99.90;;;;;;5013009;28;20216;-83
2021/12/27 08:54:14;;;;;;;9.90;9.60;;;3.10;99.90;;;;;;5005563;28;20291;-84
2021/12/27 08:56:42;;;;;;;9.87;9.57;;;3.10;99.90;;;;;;5003112;28;20300;-84
2021/12/27 08:59:10;;;;;;;9.80;9.50;;;3.10;99.90;;;;;;5002671;28;20228;-84
2021/12/27 09:01:38;;;;;;;9.60;9.30;;;3.10;99.90;;;;;;5002451;28;20285;-84
2021/12/27 09:04:07;;;;;;;9.43;9.13;;;3.10;99.90;;;;;;5001465;28;20237;-85
2021/12/27 09:06:36;;;;;;;9.70;9.40;;;3.10;99.90;;;;;;5002832;28;20233;-84
2021/12/27 09:09:06;;;;;;;9.40;9.10;;;3.20;99.90;;;;;;5001389;28;20229;-85
2021/12/27 09:11:34;;;;;;;9.50;9.20;;;3.10;99.90;;;;;;5001276;28;20241;-87
2021/12/27 09:14:02;;;;;;;9.50;9.20;;;3.10;99.90;;;;;;5001783;28;20229;-84
2021/12/27 09:16:30;;;;;;;9.53;9.23;;;3.10;99.90;;;;;;5002613;28;20240;-84
2021/12/27 09:18:58;;;;;;;9.60;9.30;;;3.10;99.90;;;;;;5002126;28;20295;-83
2021/12/27 09:21:26;;;;;;;9.63;9.33;;;3.20;99.90;;;;;;5002047;28;20237;-83
2021/12/27 09:23:55;;;;;;;9.70;9.40;;;3.20;99.90;;;;;;5001408;28;20232;-84
2021/12/27 09:26:23;;;;;;;9.50;9.20;;;3.20;99.90;;;;;;5001410;28;20229;-85
2021/12/27 09:28:51;;;;;;;9.57;9.27;;;3.20;99.90;;;;;;5003390;28;20283;-84
2021/12/27 09:31:19;;;;;;;9.60;9.30;;;3.20;99.90;;;;;;5010676;28;20239;-83
2021/12/27 09:33:47;;;;;;;9.40;9.10;;;3.20;99.90;;;;;;5013372;28;20237;-84
2021/12/27 09:36:15;;;;;;;9.30;9.00;;;3.30;99.90;;;;;;5006872;28;20292;-83
2021/12/27 09:38:45;;;;;;;9.10;8.80;;;3.30;99.90;;;;;;5023081;28;21169;-85
2021/12/27 09:41:15;;;;;;;9.43;9.13;;;3.20;99.90;;;;;;5037480;28;20222;-86
2021/12/27 09:43:44;;;;;;;9.50;9.20;;;3.20;99.90;;;;;;5039602;28;20215;-87
2021/12/27 09:46:13;;;;;;;9.00;8.70;;;3.20;99.90;;;;;;5029720;28;20239;-86
2021/12/27 09:48:42;;;;;;;9.50;9.20;;;3.20;99.90;;;;;;5001924;28;20244;-86
2021/12/27 09:51:10;;;;;;;9.30;9.00;;;3.20;99.90;;;;;;5017325;28;20232;-84
2021/12/27 09:53:39;;;;;;;9.53;9.23;;;3.20;99.90;;;;;;5018051;28;20236;-86
2021/12/27 09:56:09;;;;;;;9.10;8.80;;;3.30;99.90;;;;;;5019076;28;20232;-86
2021/12/27 09:58:41;;;;;;;9.40;9.10;;;3.30;99.90;;;;;;5018732;28;20232;-86
2021/12/27 10:01:09;;;;;;;9.40;9.10;;;3.30;99.90;;;;;;5016758;28;20245;-85
2021/12/27 10:03:48;;;;;;;9.20;8.90;;;3.30;99.90;;;;;;5018905;28;20225;-87
2021/12/27 10:06:17;;;;;;;9.20;8.90;;;3.30;99.90;;;;;;5019344;28;20216;-87
2021/12/27 10:08:46;;;;;;;9.43;9.13;;;3.30;99.90;;;;;;5019694;28;20225;-88
2021/12/27 10:11:19;;;;;;;9.30;9.00;;;3.30;99.90;;;;;;5019716;28;20237;-88
2021/12/27 10:14:12;;;;;;;9.40;9.10;;;3.30;99.90;;;;;;5020268;28;20213;-87
2021/12/27 10:16:42;;;;;;;9.43;9.13;;;3.40;99.90;;;;;;5017228;28;20240;-87
2021/12/27 10:19:15;;;;;;;9.33;9.03;;;3.40;99.90;;;;;;5020146;28;20231;-87
2021/12/27 10:21:43;;;;;;;9.50;9.20;;;3.40;99.90;;;;;;5022251;28;20209;-87
2021/12/27 10:24:14;;;;;;;9.50;9.20;;;3.40;99.90;;;;;;5023230;28;20280;-87
2021/12/27 10:26:43;;;;;;;9.50;9.20;;;3.40;99.90;;;;;;5023279;28;20229;-85
2021/12/27 10:29:18;;;;;;;9.50;9.20;;;3.50;99.90;;;;;;5023482;28;20209;-87
2021/12/27 10:31:55;;;;;;;9.40;9.10;;;3.50;99.90;;;;;;5023692;28;20208;-88
2021/12/27 10:34:27;;;;;;;9.37;9.07;;;3.50;99.90;;;;;;5023314;28;20224;-85
2021/12/27 10:37:05;;;;;;;9.50;9.20;;;3.50;99.90;;;;;;5024246;28;20278;-86
2021/12/27 10:39:45;;;;;;;9.90;9.60;;;3.50;99.90;;;;;;5024016;28;20213;-85
2021/12/27 10:42:15;;;;;;;9.40;9.10;;;3.60;99.90;;;;;;5023850;28;20201;-86
2021/12/27 10:44:48;;;;;;;9.70;9.40;;;3.60;99.90;;;;;;5023836;28;20221;-85
2021/12/27 10:47:37;;;;;;;9.33;9.03;;;3.60;99.90;;;;;;5023906;28;20303;-88
2021/12/27 10:50:13;;;;;;;9.30;9.00;;;3.60;99.90;;;;;;5023311;28;20228;-86
2021/12/27 10:52:55;;;;;;;9.37;9.07;;;3.70;99.90;;;;;;5023335;28;20213;-87
2021/12/27 10:55:27;;;;;;;9.20;8.90;;;3.70;99.90;;;;;;5023119;28;20228;-86
2021/12/27 10:58:11;;;;;;;9.53;9.23;;;3.70;99.90;;;;;;5023005;28;20209;-86
2021/12/27 11:00:42;;;;;;;9.40;9.10;;;3.70;99.90;;;;;;5021024;28;20252;-87
2021/12/27 11:03:24;;;;;;;9.50;9.20;;;3.70;99.90;;;;;;5022363;28;20221;-85
2021/12/27 11:05:52;;;;;;;9.60;9.30;;;3.70;99.90;;;;;;5021980;28;20228;-84
2021/12/27 11:08:20;;;;;;;9.30;9.00;;;3.70;99.90;;;;;;5018123;28;20237;-84
2021/12/27 11:10:49;;;;;;;9.40;9.10;;;3.70;99.90;;;;;;5010528;28;20264;-84
2021/12/27 11:13:17;;;;;;;9.50;9.20;;;3.70;99.90;;;;;;5007235;28;20227;-84
2021/12/27 11:15:46;;;;;;;9.53;9.23;;;3.70;99.90;;;;;;5008705;28;20240;-84
2021/12/27 11:18:15;;;;;;;9.80;9.50;;;3.70;99.90;;;;;;5006683;28;20260;-84
2021/12/27 11:20:46;;;;;;;9.53;9.23;;;3.60;99.90;;;;;;5004793;28;20232;-84
2021/12/27 11:23:16;;;;;;;9.43;9.13;;;3.70;99.90;;;;;;5005861;28;20221;-84
2021/12/27 11:25:46;;;;;;;9.57;9.27;;;3.70;99.90;;;;;;5005177;28;20267;-84
2021/12/27 11:28:29;;;;;;;10.10;9.80;;;3.80;99.90;;;;;;5009087;28;20216;-85
2021/12/27 11:31:00;;;;;;;9.90;9.60;;;3.80;99.90;;;;;;5005203;28;20240;-84
2021/12/27 11:33:30;;;;;;;9.80;9.50;;;3.80;99.90;;;;;;5000809;28;20712;-84
2021/12/27 11:36:11;;;;;;;9.80;9.50;;;3.80;99.90;;;;;;5003635;28;20228;-84
2021/12/27 11:38:42;;;;;;;10.00;9.70;;;3.80;99.90;;;;;;5005519;28;20217;-84
2021/12/27 11:41:33;;;;;;;9.57;9.27;;;3.80;99.90;;;;;;5004492;28;20247;-84
2021/12/27 11:44:04;;;;;;;9.80;9.50;;;3.80;99.90;;;;;;5004925;28;20225;-84
2021/12/27 11:46:57;;;;;;;9.90;9.60;;;3.90;99.90;;;;;;5005438;28;20236;-84
2021/12/27 11:49:45;;;;;;;9.80;9.50;;;3.90;99.90;;;;;;5004290;28;20327;-85
2021/12/27 11:52:24;;;;;;;9.50;9.20;;;3.90;99.90;;;;;;5004049;28;20228;-84
2021/12/27 11:54:56;;;;;;;9.47;9.17;;;4.00;99.90;;;;;;5004089;28;20315;-84
2021/12/27 11:57:53;;;;;;;9.40;9.10;;;4.00;99.90;;;;;;5004594;28;20228;-84
2021/12/27 12:00:40;;;;;;;9.67;9.37;;;3.90;99.90;;;;;;5004702;28;20244;-83
2021/12/27 12:03:40;;;;;;;9.50;9.20;;;3.90;99.90;;;;;;5047844;22;20227;-79
2021/12/27 12:06:30;;;;;;;9.40;9.10;;;3.90;99.90;;;;;;5013470;28;20232;-79
2021/12/27 12:08:59;;;;;;;9.30;9.00;;;3.90;99.90;;;;;;5009982;28;20289;-80
2021/12/27 12:11:33;;;;;;;9.27;8.97;;;4.10;99.90;;;;;;5013704;28;20232;-82
2021/12/27 12:14:26;;;;;;;9.30;9.00;;;4.00;99.90;;;;;;5010255;28;20295;-80
2021/12/27 12:16:59;;;;;;;9.53;9.23;;;3.90;99.90;;;;;;5009806;28;20251;-80
2021/12/27 12:19:45;;;;;;;9.50;9.20;;;3.90;99.90;;;;;;5008687;28;20237;-80
2021/12/27 12:22:34;;;;;;;9.20;8.90;;;3.90;99.90;;;;;;5010535;28;20233;-79
2021/12/27 12:25:18;;;;;;;9.40;9.10;;;3.80;99.90;;;;;;5008186;28;20281;-80
2021/12/27 12:27:58;;;;;;;9.40;9.10;;;3.80;99.90;;;;;;5009811;28;20233;-80
2021/12/27 12:30:32;;;;;;;9.40;9.10;;;3.80;99.90;;;;;;5007164;28;20221;-80
2021/12/27 12:33:05;;;;;;;9.10;8.80;;;3.70;99.90;;;;;;5009880;28;20241;-80
2021/12/27 12:35:43;;;;;;;9.30;9.00;;;3.70;99.90;;;;;;5009271;28;20260;-80
2021/12/27 12:38:21;;;;;;;9.20;8.90;;;3.60;99.90;;;;;;5010337;28;21064;-80
2021/12/27 12:41:06;;;;;;;9.20;8.90;;;3.60;99.90;;;;;;5009287;28;20225;-79
2021/12/27 12:43:46;;;;;;;9.03;8.73;;;3.50;99.90;;;;;;5007647;28;20244;-80
2021/12/27 12:46:22;;;;;;;9.40;9.10;;;3.50;99.90;;;;;;5009525;28;20256;-80
2021/12/27 12:49:06;;;;;;;9.50;9.20;;;3.50;99.90;;;;;;5007198;28;20236;-80
2021/12/27 12:51:41;;;;;;;9.40;9.10;;;3.40;99.90;;;;;;4999236;28;20228;-80
2021/12/27 12:54:29;;;;;;;9.10;8.80;;;3.40;99.90;;;;;;5011047;28;20238;-80
2021/12/27 12:57:00;;;;;;;9.20;8.90;;;3.40;99.90;;;;;;5011928;28;20325;-81
2021/12/27 12:59:34;;;;;;;9.20;8.90;;;3.40;99.90;;;;;;5012464;28;20229;-81
2021/12/27 13:02:06;;;;;;;9.53;9.23;;;3.40;99.90;;;;;;4998635;28;20233;-81
2021/12/27 13:04:44;;;;;;;9.30;9.00;;;3.50;99.90;;;;;;5012242;28;20264;-81
2021/12/27 13:07:20;;;;;;;9.17;8.87;;;3.50;99.90;;;;;;5018451;28;20209;-79
2021/12/27 13:09:51;;;;;;;9.23;8.93;;;3.50;99.90;;;;;;5019531;28;20193;-79
2021/12/27 13:12:25;;;;;;;9.10;8.80;;;3.50;99.90;;;;;;5016591;28;20268;-80
2021/12/27 13:14:59;;;;;;;9.20;8.90;;;3.60;99.90;;;;;;5019055;28;20241;-80
2021/12/27 13:17:29;;;;;;;9.10;8.80;;;3.60;99.90;;;;;;5017148;28;20292;-79
2021/12/27 13:20:06;;;;;;;9.23;8.93;;;3.70;99.90;;;;;;5017660;28;20221;-80